Time;durP1;ratioP1;P1;durP2;ratioP2;P2;SDS_P1;SDS_P2;PMS_P1;PMS_P2;Temp;Humidity;BMP_temperature;BMP_pressure;BME280_temperature;BME280_humidity;BME280_pressure;Samples;Min_cycle;Max_cycle;Signal;HPM_P1;HPM_P2
2021/09/29 00:01:37;;;;;;;0.93;0.62;;;;;;;13.30;92.17;98234.41;1747712;82;21526;-90
2021/09/29 00:04:03;;;;;;;1.42;0.68;;;;;;;13.31;92.14;98240.59;1747762;82;21042;-90
2021/09/29 00:06:30;;;;;;;1.52;1.00;;;;;;;13.29;91.90;98235.31;1747847;82;21069;-90
2021/09/29 00:08:56;;;;;;;1.30;0.90;;;;;;;13.27;91.66;98232.30;1750705;80;20994;-90
2021/09/29 00:11:23;;;;;;;0.95;0.70;;;;;;;13.23;91.51;98238.20;1747894;82;21049;-90
2021/09/29 00:13:49;;;;;;;1.10;0.70;;;;;;;13.16;91.28;98236.23;1749793;81;20978;-90
2021/09/29 00:16:18;;;;;;;1.22;0.80;;;;;;;13.10;91.22;98236.45;1747725;82;20995;-90
2021/09/29 00:18:44;;;;;;;1.47;1.07;;;;;;;13.02;91.50;98236.73;1757395;81;21398;-90
2021/09/29 00:21:10;;;;;;;1.87;0.93;;;;;;;12.96;91.10;98235.63;1725330;82;20975;-90
2021/09/29 00:23:37;;;;;;;2.58;1.00;;;;;;;12.91;90.91;98238.88;1736819;83;21023;-90
2021/09/29 00:26:03;;;;;;;1.95;1.12;;;;;;;12.83;90.41;98240.48;1738477;81;21392;-90
2021/09/29 00:28:30;;;;;;;1.40;0.80;;;;;;;12.77;90.47;98239.38;1761617;81;20953;-90
2021/09/29 00:31:05;;;;;;;1.47;0.90;;;;;;;12.70;90.57;98240.53;1761825;81;20984;-89
2021/09/29 00:33:29;;;;;;;1.10;1.00;;;;;;;12.64;90.57;98244.25;1757548;81;21447;-90
2021/09/29 00:35:56;;;;;;;1.98;1.15;;;;;;;12.58;90.49;98245.31;1744929;81;21392;-89
2021/09/29 00:38:23;;;;;;;1.10;0.90;;;;;;;12.53;91.08;98249.92;1761812;81;21064;-90
2021/09/29 00:40:49;;;;;;;1.90;0.90;;;;;;;12.49;90.55;98252.27;1761748;81;20941;-90
2021/09/29 00:43:16;;;;;;;1.30;0.90;;;;;;;12.42;90.25;98254.30;1761772;81;21059;-90
2021/09/29 00:45:42;;;;;;;1.22;0.85;;;;;;;12.38;90.36;98253.98;1761849;81;20984;-90
2021/09/29 00:48:09;;;;;;;1.45;0.95;;;;;;;12.35;90.15;98256.72;1758269;81;21396;-89
2021/09/29 00:50:36;;;;;;;1.22;0.82;;;;;;;12.25;90.36;98255.69;1764917;81;20990;-89
2021/09/29 00:53:03;;;;;;;2.33;1.10;;;;;;;12.27;90.15;98259.19;1778207;81;21002;-90
2021/09/29 00:55:30;;;;;;;1.22;0.88;;;;;;;12.25;90.17;98257.50;1778614;80;20987;-89
2021/09/29 00:57:56;;;;;;;4.40;1.00;;;;;;;12.26;90.37;98253.91;1778591;81;20995;-89
2021/09/29 01:00:23;;;;;;;0.82;0.80;;;;;;;12.27;90.42;98254.31;1774320;80;20990;-89
2021/09/29 01:02:49;;;;;;;2.55;1.00;;;;;;;12.27;90.58;98257.86;1765292;80;21048;-89
2021/09/29 01:05:16;;;;;;;2.55;1.00;;;;;;;12.28;90.61;98248.95;1748282;81;21016;-90
2021/09/29 01:08:03;;;;;;;1.67;1.05;;;;;;;12.30;90.66;98259.55;1748357;81;20960;-89
2021/09/29 01:10:48;;;;;;;1.50;1.10;;;;;;;12.33;90.85;98250.13;1745120;82;21031;-89
2021/09/29 01:13:33;;;;;;;3.00;1.35;;;;;;;12.35;90.83;98253.62;1755128;81;20993;-89
2021/09/29 01:16:03;;;;;;;1.57;1.10;;;;;;;12.35;90.75;98246.09;1765402;81;21012;-90
2021/09/29 01:18:38;;;;;;;1.30;0.88;;;;;;;12.36;90.41;98255.34;1765402;81;20992;-90
2021/09/29 01:21:10;;;;;;;1.02;0.82;;;;;;;12.34;89.96;98247.02;1765390;81;21064;-90
2021/09/29 01:24:17;;;;;;;2.22;0.80;;;;;;;12.33;90.05;98247.47;1765257;81;21032;-90
2021/09/29 01:26:44;;;;;;;1.25;1.10;;;;;;;12.36;90.08;98246.05;1715480;83;21507;-89
2021/09/29 01:29:16;;;;;;;4.03;1.20;;;;;;;12.34;89.89;98246.54;1715460;81;20974;-88
2021/09/29 01:31:45;;;;;;;1.57;0.90;;;;;;;12.33;89.80;98244.81;1775665;81;21062;-88
2021/09/29 01:34:14;;;;;;;2.42;0.95;;;;;;;12.30;89.62;98246.70;1749904;81;20955;-89
2021/09/29 01:36:43;;;;;;;0.68;0.65;;;;;;;12.30;89.47;98242.72;1744891;82;21432;-89
2021/09/29 01:39:10;;;;;;;2.12;1.07;;;;;;;12.26;89.32;98240.63;1745170;82;21017;-89
2021/09/29 01:41:40;;;;;;;1.32;0.82;;;;;;;12.24;89.21;98235.36;1744918;82;20991;-89
2021/09/29 01:44:09;;;;;;;1.22;0.88;;;;;;;12.22;88.83;98240.31;1743574;81;22464;-89
2021/09/29 01:46:36;;;;;;;2.10;1.05;;;;;;;12.18;88.85;98242.20;1755519;81;20998;-89
2021/09/29 01:49:28;;;;;;;1.92;0.90;;;;;;;12.17;88.69;98239.59;1744915;82;21033;-89
2021/09/29 01:51:56;;;;;;;0.75;0.70;;;;;;;12.14;88.21;98236.09;1747219;81;21038;-89
2021/09/29 01:54:26;;;;;;;2.72;0.82;;;;;;;12.06;88.19;98238.59;1752293;81;20935;-89
2021/09/29 01:56:54;;;;;;;1.62;1.00;;;;;;;12.01;88.58;98234.27;1775624;81;21030;-90
2021/09/29 01:59:23;;;;;;;1.75;0.78;;;;;;;12.01;88.35;98232.94;1775416;81;21023;-89
2021/09/29 02:01:53;;;;;;;5.35;1.35;;;;;;;11.99;88.51;98236.56;1781909;80;21037;-89
2021/09/29 02:04:21;;;;;;;1.55;0.60;;;;;;;11.99;88.29;98244.53;1753015;82;21014;-89
2021/09/29 02:06:51;;;;;;;1.12;0.70;;;;;;;11.96;88.47;98242.84;1753209;82;21428;-89
2021/09/29 02:09:19;;;;;;;1.90;0.70;;;;;;;11.96;88.25;98242.84;1753215;81;21069;-89
2021/09/29 02:11:47;;;;;;;2.15;0.80;;;;;;;11.94;88.21;98237.16;1769140;81;21366;-89
2021/09/29 02:14:14;;;;;;;0.90;0.70;;;;;;;11.92;88.20;98241.19;1779229;81;21099;-90
2021/09/29 02:16:41;;;;;;;4.12;0.95;;;;;;;11.90;88.33;98237.73;1780208;80;21028;-90
2021/09/29 02:19:08;;;;;;;1.20;0.82;;;;;;;11.90;88.39;98233.73;1784332;80;21061;-90
2021/09/29 02:21:34;;;;;;;2.40;0.78;;;;;;;11.88;88.22;98240.90;1768127;80;20989;-90
2021/09/29 02:24:01;;;;;;;1.50;0.62;;;;;;;11.88;88.36;98245.73;1753468;81;21033;-89
2021/09/29 02:26:27;;;;;;;1.10;1.00;;;;;;;11.88;88.20;98248.87;1753652;80;20993;-89
2021/09/29 02:28:54;;;;;;;1.75;0.82;;;;;;;11.86;88.08;98242.72;1753622;82;21045;-89
2021/09/29 02:31:20;;;;;;;1.55;0.88;;;;;;;11.89;88.02;98246.62;1753514;81;20966;-89
2021/09/29 02:33:47;;;;;;;2.02;0.82;;;;;;;11.92;88.27;98246.50;1765931;81;21500;-90
2021/09/29 02:36:14;;;;;;;1.02;0.75;;;;;;;11.96;88.28;98255.27;1784380;80;20962;-88
2021/09/29 02:38:42;;;;;;;2.42;0.70;;;;;;;11.97;88.28;98239.73;1787105;80;20975;-88
2021/09/29 02:41:11;;;;;;;1.12;0.60;;;;;;;11.98;88.38;98254.30;1785126;80;20985;-88
2021/09/29 02:43:38;;;;;;;1.22;0.80;;;;;;;12.01;88.06;98254.19;1756299;80;21439;-89
2021/09/29 02:46:05;;;;;;;1.40;0.70;;;;;;;12.05;88.61;98248.82;1754785;82;21034;-89
2021/09/29 02:48:33;;;;;;;1.07;0.70;;;;;;;12.08;88.64;98246.08;1755629;82;21131;-88
2021/09/29 02:51:00;;;;;;;1.17;0.70;;;;;;;12.13;88.67;98252.97;1755407;82;21061;-88
2021/09/29 02:53:30;;;;;;;0.93;0.60;;;;;;;12.12;88.50;98252.56;1779705;81;21000;-88
2021/09/29 02:56:01;;;;;;;4.22;0.82;;;;;;;12.15;88.31;98256.91;1780443;81;21080;-89
2021/09/29 02:58:28;;;;;;;1.35;1.07;;;;;;;12.20;88.36;98252.31;1767752;80;21515;-89
2021/09/29 03:00:59;;;;;;;1.15;0.72;;;;;;;12.20;88.18;98252.31;1751773;80;21003;-89
2021/09/29 03:03:26;;;;;;;2.02;0.98;;;;;;;12.23;88.35;98255.33;1728648;82;21085;-89
2021/09/29 03:05:52;;;;;;;1.75;0.80;;;;;;;12.23;88.10;98257.55;1745082;82;21002;-89
2021/09/29 03:08:19;;;;;;;0.85;0.70;;;;;;;12.25;88.15;98255.69;1745085;82;21502;-89
2021/09/29 03:10:46;;;;;;;1.40;0.80;;;;;;;12.27;87.45;98256.97;1744972;82;21018;-89
2021/09/29 03:13:14;;;;;;;1.47;0.90;;;;;;;12.25;87.54;98258.83;1744963;82;21030;-89
2021/09/29 03:15:41;;;;;;;1.35;1.00;;;;;;;12.24;87.55;98251.30;1745126;81;20998;-89
2021/09/29 03:18:08;;;;;;;1.45;0.80;;;;;;;12.23;87.44;98250.90;1744854;82;21009;-89
2021/09/29 03:20:35;;;;;;;2.00;0.80;;;;;;;12.22;87.06;98249.16;1744903;82;20983;-89
2021/09/29 03:23:01;;;;;;;1.02;0.90;;;;;;;12.16;87.00;98252.47;1755502;81;20966;-89
2021/09/29 03:25:28;;;;;;;4.47;0.95;;;;;;;12.11;87.06;98249.95;1775665;81;21042;-88
2021/09/29 03:27:55;;;;;;;4.10;1.00;;;;;;;12.08;87.00;98246.93;1761912;81;20994;-89
2021/09/29 03:30:22;;;;;;;3.52;1.27;;;;;;;12.07;86.83;98249.63;1744989;82;20998;-89
2021/09/29 03:32:49;;;;;;;1.45;1.00;;;;;;;12.04;86.80;98245.25;1745029;82;20993;-89
2021/09/29 03:35:15;;;;;;;1.30;1.20;;;;;;;12.04;86.82;98249.23;1745063;82;21050;-90
2021/09/29 03:37:43;;;;;;;1.07;0.95;;;;;;;12.03;87.01;98247.98;1745025;82;21471;-91
2021/09/29 03:40:13;;;;;;;2.65;1.37;;;;;;;12.00;86.58;98247.63;1757152;81;21011;-90
2021/09/29 03:42:41;;;;;;;2.80;1.00;;;;;;;11.97;86.28;98248.59;1765337;81;20965;-90
2021/09/29 03:45:10;;;;;;;3.30;1.05;;;;;;;11.96;86.44;98252.13;1765297;81;20985;-91
2021/09/29 03:47:36;;;;;;;2.08;1.25;;;;;;;11.95;86.33;98243.77;1766691;81;20923;-90
2021/09/29 03:50:04;;;;;;;2.08;1.20;;;;;;;11.94;86.45;98250.00;1775531;81;21077;-90
2021/09/29 03:52:31;;;;;;;4.35;1.50;;;;;;;11.94;86.23;98254.42;1775613;81;20990;-89
2021/09/29 03:54:57;;;;;;;3.42;1.22;;;;;;;11.91;86.02;98254.06;1775581;81;21019;-90
2021/09/29 03:57:24;;;;;;;3.02;1.32;;;;;;;11.88;85.94;98248.39;1771110;81;21012;-90
2021/09/29 03:59:50;;;;;;;1.82;1.32;;;;;;;11.89;85.89;98249.27;1744693;82;21053;-90
2021/09/29 04:02:17;;;;;;;4.12;1.25;;;;;;;11.88;85.91;98244.41;1746742;82;21014;-90
2021/09/29 04:04:43;;;;;;;2.45;1.65;;;;;;;11.87;85.78;98249.76;1748442;80;21014;-90
2021/09/29 04:07:09;;;;;;;3.08;1.60;;;;;;;11.86;85.96;98250.68;1778448;80;21459;-89
2021/09/29 04:09:36;;;;;;;2.37;1.57;;;;;;;11.85;85.87;98253.81;1773410;80;20990;-90
2021/09/29 04:12:03;;;;;;;3.27;1.62;;;;;;;11.84;85.87;98249.88;1748041;82;21002;-90
2021/09/29 04:14:29;;;;;;;3.33;1.60;;;;;;;11.86;85.95;98251.56;1748069;82;21415;-90
2021/09/29 04:16:56;;;;;;;1.98;1.40;;;;;;;11.85;85.92;98260.45;1748047;82;20982;-90
2021/09/29 04:19:22;;;;;;;1.90;1.50;;;;;;;11.86;85.74;98257.32;1761335;81;21019;-89
2021/09/29 04:21:49;;;;;;;3.27;1.40;;;;;;;11.86;85.58;98250.68;1750878;82;21046;-90
2021/09/29 04:24:15;;;;;;;4.53;2.35;;;;;;;11.84;85.39;98248.55;1757334;81;21426;-90
2021/09/29 04:26:42;;;;;;;2.15;1.42;;;;;;;11.84;85.40;98252.05;1757200;81;21013;-90
2021/09/29 04:29:09;;;;;;;4.45;1.60;;;;;;;11.85;85.39;98255.14;1745824;81;20991;-90
2021/09/29 04:31:35;;;;;;;5.62;2.20;;;;;;;11.84;85.06;98257.84;1765644;81;21443;-90
2021/09/29 04:34:03;;;;;;;3.08;1.32;;;;;;;11.83;85.10;98260.09;1778665;81;20967;-89
2021/09/29 04:36:29;;;;;;;3.50;1.98;;;;;;;11.85;85.17;98260.90;1778709;80;21022;-90
2021/09/29 04:38:56;;;;;;;5.72;1.60;;;;;;;11.86;85.06;98262.19;1778725;81;20978;-90
2021/09/29 04:41:23;;;;;;;4.30;2.75;;;;;;;11.88;85.05;98264.33;1757510;81;21014;-90
2021/09/29 04:43:51;;;;;;;3.00;2.55;;;;;;;11.91;84.68;98266.02;1747970;82;21357;-90
2021/09/29 04:46:18;;;;;;;3.87;1.95;;;;;;;11.92;84.72;98265.09;1747876;82;21399;-89
2021/09/29 04:48:45;;;;;;;3.42;1.60;;;;;;;11.95;85.01;98268.11;1752609;81;21044;-89
2021/09/29 04:51:11;;;;;;;7.80;3.72;;;;;;;11.97;84.77;98267.17;1751048;82;21003;-89
2021/09/29 04:53:38;;;;;;;3.45;2.30;;;;;;;12.00;85.04;98264.88;1757758;81;20977;-89
2021/09/29 04:56:05;;;;;;;2.65;1.82;;;;;;;12.06;85.08;98262.51;1757505;82;21013;-88
2021/09/29 04:58:32;;;;;;;3.35;1.75;;;;;;;12.10;84.99;98262.38;1744057;81;20999;-89
2021/09/29 05:00:58;;;;;;;2.35;1.85;;;;;;;12.15;84.08;98266.20;1715245;82;21007;-88
2021/09/29 05:03:29;;;;;;;6.90;3.77;;;;;;;12.19;84.61;98261.66;1748924;82;21002;-87
2021/09/29 05:05:55;;;;;;;14.43;8.20;;;;;;;12.24;84.57;98261.05;1748631;82;21026;-88
2021/09/29 05:08:29;;;;;;;3.17;2.10;;;;;;;12.27;83.95;98263.17;1748471;82;21420;-89
2021/09/29 05:11:02;;;;;;;;;;;;;;;12.30;83.70;98261.32;1758028;81;21036;-88
2021/09/29 05:13:31;;;;;;;3.65;2.00;;;;;;;12.32;84.02;98263.01;1750209;82;20141;-89
2021/09/29 05:16:00;;;;;;;2.37;2.08;;;;;;;12.35;83.81;98258.94;1757752;81;20981;-89
2021/09/29 05:18:27;;;;;;;3.42;2.25;;;;;;;12.35;82.60;98258.94;1757858;82;21008;-90
2021/09/29 05:20:55;;;;;;;2.87;1.80;;;;;;;12.36;83.10;98256.68;1757860;81;21067;-87
2021/09/29 05:23:22;;;;;;;3.15;1.90;;;;;;;12.38;82.76;98260.14;1749227;81;21018;-90
2021/09/29 05:25:49;;;;;;;6.03;1.98;;;;;;;12.40;82.56;98260.98;1740288;81;21037;-90
2021/09/29 05:28:20;;;;;;;4.83;1.80;;;;;;;12.38;82.50;98267.27;1762459;81;20987;-90
2021/09/29 05:30:47;;;;;;;4.25;2.00;;;;;;;12.40;82.87;98266.30;1716303;82;21031;-89
2021/09/29 05:33:13;;;;;;;4.17;2.20;;;;;;;12.42;82.23;98267.58;1708319;82;21004;-90
2021/09/29 05:35:40;;;;;;;3.47;1.98;;;;;;;12.39;82.00;98269.00;1757305;82;20973;-89
2021/09/29 05:38:06;;;;;;;4.30;2.20;;;;;;;12.37;81.70;98271.70;1757254;81;21430;-90
2021/09/29 05:40:35;;;;;;;2.72;1.80;;;;;;;12.35;81.83;98274.00;1757025;81;21035;-90
2021/09/29 05:43:01;;;;;;;2.45;1.95;;;;;;;12.35;82.04;98272.67;1710163;83;21400;-89
2021/09/29 05:45:28;;;;;;;3.40;2.40;;;;;;;12.35;82.07;98267.36;1710012;84;21074;-90
2021/09/29 05:47:54;;;;;;;2.85;1.90;;;;;;;12.37;81.93;98272.18;1709984;84;21060;-90
2021/09/29 05:50:21;;;;;;;4.03;1.75;;;;;;;12.38;82.01;98278.75;1728081;82;21488;-90
2021/09/29 05:52:47;;;;;;;4.40;2.25;;;;;;;12.40;81.77;98274.72;1739564;82;20998;-90
2021/09/29 05:55:14;;;;;;;2.60;1.95;;;;;;;12.39;81.73;98279.63;1742905;81;21054;-89
2021/09/29 05:57:41;;;;;;;4.22;2.45;;;;;;;12.37;81.29;98282.33;1778422;81;20990;-90
2021/09/29 06:00:08;;;;;;;3.72;2.25;;;;;;;12.37;81.45;98283.66;1763286;80;20991;-90
2021/09/29 06:02:41;;;;;;;5.05;2.37;;;;;;;12.39;80.47;98280.95;1746170;82;21010;-90
2021/09/29 06:05:08;;;;;;;9.53;5.37;;;;;;;12.33;79.98;98286.00;1744884;82;21022;-89
2021/09/29 06:07:38;;;;;;;3.12;2.55;;;;;;;12.35;81.04;98288.17;1744233;82;21014;-90
2021/09/29 06:10:06;;;;;;;7.10;2.25;;;;;;;12.36;81.02;98292.56;1744894;82;21033;-90
2021/09/29 06:12:32;;;;;;;7.08;2.45;;;;;;;12.36;81.30;98289.91;1759650;81;20968;-90
2021/09/29 06:14:59;;;;;;;4.78;2.70;;;;;;;12.38;81.23;98297.36;1765481;81;21429;-90
2021/09/29 06:17:37;;;;;;;2.83;2.30;;;;;;;12.36;81.24;98291.23;1765238;81;20965;-89
2021/09/29 06:19:56;;;;;;;4.25;2.30;;;;;;;12.36;81.33;98285.03;1757462;81;20982;-90
2021/09/29 06:22:23;;;;;;;3.33;2.40;;;;;;;12.36;81.12;98281.93;1744850;82;20994;-89
2021/09/29 06:24:50;;;;;;;19.12;9.63;;;;;;;12.37;81.34;98295.63;1744985;82;21471;-89
2021/09/29 06:27:16;;;;;;;4.42;2.80;;;;;;;12.39;81.46;98300.45;1773473;81;20987;-89
2021/09/29 06:29:43;;;;;;;6.78;3.33;;;;;;;12.40;81.36;98299.97;1768097;81;20998;-89
2021/09/29 06:32:10;;;;;;;4.45;2.50;;;;;;;12.41;81.41;98303.91;1745760;82;21516;-89
2021/09/29 06:34:37;;;;;;;4.65;2.65;;;;;;;12.43;81.13;98303.87;1745635;82;20995;-88
2021/09/29 06:37:04;;;;;;;4.42;2.40;;;;;;;12.44;81.46;98302.94;1745750;82;21093;-89
2021/09/29 06:39:30;;;;;;;3.22;2.27;;;;;;;12.48;81.24;98301.05;1745606;82;21014;-90
2021/09/29 06:41:57;;;;;;;3.90;2.33;;;;;;;12.48;81.18;98297.94;1730037;82;21065;-89
2021/09/29 06:44:28;;;;;;;3.98;2.70;;;;;;;12.51;81.12;98301.81;1743984;82;21058;-90
2021/09/29 06:46:55;;;;;;;5.55;2.80;;;;;;;12.54;81.08;98303.50;1745802;82;21046;-90
2021/09/29 06:49:22;;;;;;;4.72;2.50;;;;;;;12.59;81.01;98302.92;1745842;81;21404;-88
2021/09/29 06:51:48;;;;;;;6.37;3.00;;;;;;;12.62;80.92;98304.60;1765823;81;21588;-90
2021/09/29 06:54:15;;;;;;;4.42;2.62;;;;;;;12.65;80.39;98300.50;1765988;81;20937;-90
2021/09/29 06:56:42;;;;;;;3.80;2.80;;;;;;;12.65;80.31;98305.81;1753169;81;21471;-90
2021/09/29 06:59:08;;;;;;;5.35;2.80;;;;;;;12.67;80.20;98308.83;1745694;82;21030;-89
2021/09/29 07:01:38;;;;;;;8.53;3.37;;;;;;;12.69;80.28;98312.77;1760646;81;21374;-90
2021/09/29 07:04:04;;;;;;;6.55;2.50;;;;;;;12.72;80.47;98316.67;1766003;81;21003;-91
2021/09/29 07:06:31;;;;;;;7.17;2.20;;;;;;;12.74;80.76;98313.97;1751889;82;20984;-90
2021/09/29 07:08:58;;;;;;;3.72;2.60;;;;;;;12.78;80.89;98319.12;1758010;81;21429;-90
2021/09/29 07:11:24;;;;;;;5.62;2.30;;;;;;;12.82;81.00;98329.19;1756527;81;20988;-90
2021/09/29 07:13:51;;;;;;;6.33;2.47;;;;;;;12.85;80.57;98325.11;1740111;82;21006;-90
2021/09/29 07:16:19;;;;;;;5.08;2.40;;;;;;;12.89;80.95;98329.41;1689668;82;21085;-90
2021/09/29 07:18:45;;;;;;;5.75;2.85;;;;;;;12.96;81.19;98328.74;1740058;82;21018;-90
2021/09/29 07:21:12;;;;;;;4.75;2.90;;;;;;;12.99;81.10;98333.94;1739920;82;21043;-90
2021/09/29 07:23:39;;;;;;;3.77;2.27;;;;;;;13.00;80.64;98331.68;1740967;82;20998;-91
2021/09/29 07:26:06;;;;;;;6.58;2.40;;;;;;;13.03;80.93;98333.36;1764511;81;20967;-89
2021/09/29 07:28:32;;;;;;;5.37;3.10;;;;;;;13.01;80.25;98333.45;1779547;81;21030;-89
2021/09/29 07:30:59;;;;;;;5.45;2.80;;;;;;;13.01;80.02;98339.22;1779233;81;21030;-89
2021/09/29 07:33:25;;;;;;;5.95;2.70;;;;;;;13.01;79.70;98341.42;1779380;81;20967;-89
2021/09/29 07:35:55;;;;;;;3.77;2.83;;;;;;;13.01;80.01;98347.20;1777531;80;21046;-89
2021/09/29 07:38:23;;;;;;;6.42;2.65;;;;;;;13.01;80.02;98343.20;1747670;82;20986;-89
2021/09/29 07:40:50;;;;;;;8.30;2.72;;;;;;;13.01;79.97;98345.87;1747844;82;21034;-89
2021/09/29 07:43:16;;;;;;;4.17;2.90;;;;;;;13.04;79.77;98347.11;1747797;82;21018;-89
2021/09/29 07:45:43;;;;;;;9.78;4.72;;;;;;;13.05;79.87;98348.84;1747961;82;21030;-90
2021/09/29 07:48:11;;;;;;;6.33;2.95;;;;;;;13.06;79.62;98349.23;1764416;81;21055;-90
2021/09/29 07:50:37;;;;;;;4.15;2.75;;;;;;;13.07;79.45;98350.52;1751150;82;21413;-90
2021/09/29 07:53:04;;;;;;;10.05;4.67;;;;;;;13.07;79.41;98354.52;1752197;81;21085;-90
2021/09/29 07:55:30;;;;;;;8.30;3.60;;;;;;;13.10;79.59;98344.67;1765891;80;20990;-90
2021/09/29 07:57:57;;;;;;;10.75;4.45;;;;;;;13.10;78.84;98353.98;1753855;80;21404;-90
2021/09/29 08:00:23;;;;;;;6.83;3.20;;;;;;;13.07;78.91;98351.85;1747912;82;21530;-90
2021/09/29 08:02:52;;;;;;;4.78;3.10;;;;;;;13.07;79.10;98348.31;1746596;82;21030;-90
2021/09/29 08:05:20;;;;;;;8.95;3.50;;;;;;;13.10;78.97;98361.52;1745229;82;22146;-89
2021/09/29 08:07:51;;;;;;;5.47;3.02;;;;;;;13.11;79.15;98349.06;1758366;81;20988;-89
2021/09/29 08:10:19;;;;;;;5.75;3.22;;;;;;;13.09;79.29;98359.79;1765355;80;20965;-89
2021/09/29 08:12:46;;;;;;;6.25;3.08;;;;;;;13.10;79.11;98357.98;1765370;81;21544;-90
2021/09/29 08:15:13;;;;;;;3.90;2.60;;;;;;;13.08;78.93;98359.35;1766185;80;21040;-91
2021/09/29 08:17:42;;;;;;;7.55;3.27;;;;;;;13.05;78.66;98364.32;1768065;81;20976;-90
2021/09/29 08:20:14;;;;;;;5.37;3.52;;;;;;;13.09;78.94;98358.91;1748186;80;21479;-89
2021/09/29 08:22:45;;;;;;;5.65;3.20;;;;;;;13.10;79.22;98364.19;1749222;81;20943;-90
2021/09/29 08:25:26;;;;;;;3.98;3.12;;;;;;;13.13;79.21;98363.20;1747596;81;21002;-90
2021/09/29 08:27:55;;;;;;;7.28;3.30;;;;;;;13.17;79.17;98357.71;1758234;80;20976;-89
2021/09/29 08:30:21;;;;;;;8.05;3.90;;;;;;;13.23;79.16;98364.63;1767222;80;21031;-90
2021/09/29 08:33:06;;;;;;;5.60;3.52;;;;;;;13.26;78.61;98360.55;1767799;80;21019;-90
2021/09/29 08:35:38;;;;;;;5.00;3.20;;;;;;;13.29;78.92;98358.23;1766999;81;21445;-90
2021/09/29 08:38:05;;;;;;;6.40;3.30;;;;;;;13.32;78.69;98359.44;1763434;81;21003;-89
2021/09/29 08:40:47;;;;;;;4.67;2.95;;;;;;;13.31;78.32;98351.93;1765116;81;21077;-90
2021/09/29 08:45:57;;;;;;;5.08;3.25;;;;;;;13.38;78.56;98365.02;1749140;81;21020;-90
2021/09/29 08:48:34;;;;;;;5.17;3.27;;;;;;;13.40;78.59;98361.38;1765234;81;20997;-90
2021/09/29 09:18:17;;;;;;;5.58;3.12;;;;;;;13.44;77.61;98359.47;1747867;82;21002;-91
2021/09/29 09:20:52;;;;;;;5.17;3.20;;;;;;;13.45;77.92;98360.75;1735394;81;20992;-92
2021/09/29 09:23:14;;;;;;;4.60;3.27;;;;;;;13.48;77.99;98359.80;1750221;82;20952;-90
2021/09/29 09:25:46;;;;;;;7.70;3.37;;;;;;;13.41;77.06;98366.25;1751317;82;20956;-90
2021/09/29 09:28:28;;;;;;;6.10;3.35;;;;;;;13.36;77.56;98358.89;1777539;81;20998;-91
2021/09/29 09:31:07;;;;;;;8.48;5.12;;;;;;;13.37;77.69;98357.96;1777617;81;21003;-91
2021/09/29 09:33:36;;;;;;;3.33;2.77;;;;;;;13.40;77.56;98358.72;1749465;81;21475;-91
2021/09/29 09:36:03;;;;;;;4.30;2.90;;;;;;;13.41;77.82;98359.11;1746200;82;21464;-91
2021/09/29 09:38:35;;;;;;;5.33;3.08;;;;;;;13.46;78.11;98363.81;1747879;82;21105;-91
2021/09/29 09:41:02;;;;;;;7.17;2.77;;;;;;;13.52;78.25;98368.55;1748390;80;21006;-91
2021/09/29 09:43:30;;;;;;;3.62;2.83;;;;;;;13.57;78.51;98357.27;1764472;81;21004;-91
2021/09/29 09:46:01;;;;;;;5.53;2.75;;;;;;;13.63;78.48;98361.06;1751039;82;21010;-92
2021/09/29 09:48:29;;;;;;;3.62;2.10;;;;;;;13.69;78.58;98358.61;1742386;82;21012;-91
2021/09/29 09:51:11;;;;;;;2.87;2.45;;;;;;;13.73;78.05;98361.13;1757383;82;21056;-91
2021/09/29 09:53:37;;;;;;;3.40;2.50;;;;;;;13.81;78.72;98358.62;1741969;81;20971;-91
2021/09/29 09:56:25;;;;;;;4.80;3.20;;;;;;;13.95;77.90;98360.32;1739396;82;21070;-91
2021/09/29 09:58:54;;;;;;;3.70;2.90;;;;;;;14.02;78.23;98363.63;1739519;82;20998;-91
2021/09/29 10:01:24;;;;;;;5.60;2.70;;;;;;;14.08;78.11;98365.20;1740631;80;21054;-91
2021/09/29 10:03:52;;;;;;;6.33;3.15;;;;;;;14.16;78.08;98371.09;1741966;82;21030;-91
2021/09/29 10:06:21;;;;;;;4.00;3.17;;;;;;;14.23;77.81;98367.73;1757303;81;20977;-91
2021/09/29 10:09:40;;;;;;;4.12;2.85;;;;;;;14.29;77.91;98372.84;1765228;81;20995;-92
2021/09/29 10:11:23;;;;;;;4.28;3.33;;;;;;;14.34;77.71;98365.98;1743636;81;20994;-92
2021/09/29 10:28:05;;;;;;;3.50;3.20;;;;;;;14.19;77.27;98369.65;1745177;81;21026;-91
2021/09/29 10:30:38;;;;;;;5.35;3.22;;;;;;;14.19;77.27;98366.98;1745843;80;21007;-91
2021/09/29 10:33:03;;;;;;;4.70;3.15;;;;;;;14.20;77.01;98359.87;1765274;81;20960;-91
2021/09/29 10:43:26;;;;;;;8.00;4.80;;;;;;;14.08;76.77;98359.39;1750495;82;21009;-91
2021/09/29 10:46:21;;;;;;;4.17;3.08;;;;;;;14.12;76.81;98365.49;1750426;82;21015;-91
2021/09/29 11:30:39;;;;;;;8.43;3.50;;;;;;;14.09;76.45;98352.27;1746930;82;21026;-92
2021/09/29 11:33:10;;;;;;;6.67;3.50;;;;;;;14.06;76.41;98361.25;1772823;81;20996;-92
2021/09/29 12:09:04;;;;;;;3.87;3.25;;;;;;;14.17;74.23;98355.97;1751383;82;21019;-90
2021/09/29 12:11:29;;;;;;;5.75;3.58;;;;;;;14.16;74.57;98358.24;1766578;81;21048;-90
2021/09/29 12:14:00;;;;;;;5.20;3.67;;;;;;;14.16;74.52;98349.77;1757107;82;21044;-90
2021/09/29 12:16:37;;;;;;;5.78;3.40;;;;;;;14.16;74.98;98351.09;1760412;81;21412;-91
2021/09/29 12:19:09;;;;;;;7.72;3.72;;;;;;;14.18;74.76;98353.70;1778449;81;22205;-92
2021/09/29 12:21:47;;;;;;;7.60;4.20;;;;;;;14.19;74.91;98350.11;1774455;81;21414;-92
2021/09/29 12:24:46;;;;;;;5.65;3.72;;;;;;;14.21;74.80;98353.11;1750849;82;21023;-92
2021/09/29 12:27:38;;;;;;;6.50;3.62;;;;;;;14.21;74.62;98352.27;1757107;81;21108;-92
2021/09/29 12:30:20;;;;;;;4.95;3.42;;;;;;;14.21;74.81;98349.12;1756219;81;20988;-91
2021/09/29 12:35:54;;;;;;;5.45;3.75;;;;;;;14.31;74.93;98343.43;1757346;81;20992;-92
2021/09/29 12:38:25;;;;;;;6.53;3.35;;;;;;;14.35;75.04;98347.72;1757564;81;20990;-92
2021/09/29 12:40:53;;;;;;;5.03;3.40;;;;;;;14.39;75.36;98346.22;1743135;81;21033;-92
2021/09/29 12:43:22;;;;;;;8.75;3.37;;;;;;;14.48;75.45;98349.43;1739495;82;21058;-91
2021/09/29 12:45:50;;;;;;;4.85;3.33;;;;;;;14.52;75.43;98343.05;1739865;81;20955;-92
2021/09/29 12:48:21;;;;;;;5.65;3.17;;;;;;;14.55;75.27;98350.05;1718271;83;21049;-91
2021/09/29 12:50:53;;;;;;;7.00;3.60;;;;;;;14.60;73.83;98345.41;1718294;83;21046;-92
2021/09/29 12:53:32;;;;;;;5.58;3.20;;;;;;;14.62;74.32;98348.41;1763071;81;21548;-92
2021/09/29 12:58:27;;;;;;;7.10;3.35;;;;;;;14.62;73.30;98351.08;1751108;82;21532;-92
2021/09/29 13:00:58;;;;;;;6.28;3.00;;;;;;;14.62;73.71;98352.90;1756635;81;21032;-92
2021/09/29 13:03:27;;;;;;;5.85;4.22;;;;;;;14.62;73.29;98356.90;1758485;79;21044;-92
2021/09/29 13:05:55;;;;;;;6.37;3.65;;;;;;;14.61;73.12;98352.47;1765830;80;21079;-92
2021/09/29 13:08:22;;;;;;;3.67;2.87;;;;;;;14.59;73.30;98357.89;1765500;81;21035;-91
2021/09/29 13:10:48;;;;;;;3.72;2.87;;;;;;;14.60;72.95;98352.07;1765252;80;20985;-92
2021/09/29 13:13:15;;;;;;;4.00;2.20;;;;;;;14.56;73.14;98358.00;1765314;81;21000;-92
2021/09/29 13:15:43;;;;;;;3.45;2.35;;;;;;;14.52;73.14;98357.27;1763806;81;21396;-92
2021/09/29 13:21:00;;;;;;;3.27;2.70;;;;;;;14.45;72.97;98353.57;1744941;82;21034;-91
2021/09/29 13:23:32;;;;;;;3.98;2.08;;;;;;;14.41;72.60;98355.95;1744194;82;21014;-91
2021/09/29 13:26:13;;;;;;;3.58;2.42;;;;;;;14.35;71.92;98359.72;1757057;81;20972;-91
2021/09/29 13:36:42;;;;;;;4.17;2.98;;;;;;;14.23;72.13;98342.40;1766135;81;20928;-92
2021/09/29 13:39:13;;;;;;;4.15;2.75;;;;;;;14.22;72.60;98337.55;1768346;80;21032;-91
2021/09/29 13:41:41;;;;;;;5.05;2.90;;;;;;;14.21;72.20;98338.45;1768262;81;21066;-91
2021/09/29 13:44:09;;;;;;;4.12;2.50;;;;;;;14.20;72.82;98344.72;1768499;80;21108;-91
2021/09/29 13:46:36;;;;;;;5.62;3.05;;;;;;;14.21;72.54;98348.27;1768873;80;20978;-92
2021/09/29 13:49:05;;;;;;;4.45;2.80;;;;;;;14.16;72.64;98345.77;1747768;82;21027;-92
2021/09/29 13:51:33;;;;;;;4.53;3.08;;;;;;;14.16;72.33;98347.09;1746649;82;21034;-91
2021/09/29 13:54:11;;;;;;;3.45;2.40;;;;;;;14.13;72.54;98349.42;1746643;81;21091;-91
2021/09/29 13:56:51;;;;;;;4.47;3.27;;;;;;;14.08;71.44;98350.06;1745755;82;21000;-91
2021/09/29 14:29:21;;;;;;;5.80;3.08;;;;;;;13.99;72.30;98342.41;1780693;81;20993;-91
2021/09/29 14:34:14;;;;;;;4.90;2.72;;;;;;;14.03;72.28;98341.86;1780711;80;20961;-91
2021/09/29 14:36:41;;;;;;;3.90;2.65;;;;;;;14.04;72.19;98341.77;1780618;80;21005;-92
2021/09/29 14:39:08;;;;;;;4.75;2.77;;;;;;;14.02;72.35;98343.64;1768195;80;20986;-92